^^
Saratoga-Weather Station Historical Data
Daily Summary for March 21, 2020 Units:  Metric    English   Both
Daily Weekly Monthly Yearly Custom
  High: Low: Average:
Temperature: 3.4 °C -1.7 °C 0.4 °C
Dew Point: 0.5 °C -2.7 °C -1.2 °C
Humidity: 94% 80% 89%
Wind Speed: 6.4km/h 0km/h 0.2km/h
Wind Gust: 8km/h - -
Wind- - ENE
Pressure: 1043.3 hPa 1037.2 hPa -
Precipitation: 0.0 mm    
Historical Graphs
 
 
Tabular Data for March 21, 2020
Time Temperature Dew Point Pressure Wind Wind Speed Wind Gust Humidity Rainfall Rate (Hourly) solar
00:03 0.8 °C -1.1 °C 1043.3 hPa Calm   4.8 km/h 87% 0.0 mm 0 W/m2
00:08 0.8 °C -1.1 °C 1043.3 hPa Calm     87% 0.0 mm 0 W/m2
00:13 0.8 °C -1.1 °C 1043.3 hPa Calm     87% 0.0 mm 0 W/m2
00:18 0.7 °C -1.2 °C 1043.3 hPa Calm     87% 0.0 mm 0 W/m2
00:23 0.7 °C -1.2 °C 1043.3 hPa Calm     87% 0.0 mm 0 W/m2
00:28 0.7 °C -1.2 °C 1043.3 hPa Calm   1.6 km/h 87% 0.0 mm 0 W/m2
00:33 0.8 °C -1.1 °C 1043.0 hPa Calm     87% 0.0 mm 0 W/m2
00:38 0.7 °C -1.2 °C 1043.0 hPa Calm   1.6 km/h 87% 0.0 mm 0 W/m2
00:43 0.7 °C -1.2 °C 1043.0 hPa Calm     87% 0.0 mm 0 W/m2
00:48 0.7 °C -1.2 °C 1043.0 hPa Calm     87% 0.0 mm 0 W/m2
00:53 0.7 °C -1.2 °C 1043.0 hPa Calm     87% 0.0 mm 0 W/m2
00:58 0.6 °C -1.3 °C 1043.0 hPa Calm     87% 0.0 mm 0 W/m2
01:03 0.4 °C -1.5 °C 1043.3 hPa Calm     87% 0.0 mm 0 W/m2
01:08 0.4 °C -1.4 °C 1043.0 hPa Calm     88% 0.0 mm 0 W/m2
01:13 0.4 °C -1.4 °C 1043.0 hPa Calm   4.8 km/h 88% 0.0 mm 0 W/m2
01:18 0.6 °C -1.2 °C 1043.0 hPa Calm     88% 0.0 mm 0 W/m2
01:23 0.6 °C -1.3 °C 1043.0 hPa Calm   4.8 km/h 87% 0.0 mm 0 W/m2
01:28 0.4 °C -1.5 °C 1043.0 hPa Calm     87% 0.0 mm 0 W/m2
01:33 0.3 °C -1.6 °C 1042.7 hPa Calm     87% 0.0 mm 0 W/m2
01:38 0.2 °C -1.6 °C 1042.7 hPa Calm   1.6 km/h 88% 0.0 mm 0 W/m2
01:43 0.2 °C -1.6 °C 1042.7 hPa Calm     88% 0.0 mm 0 W/m2
01:48 0.1 °C -1.7 °C 1042.3 hPa Calm     88% 0.0 mm 0 W/m2
01:53 -0.1 °C -1.8 °C 1042.3 hPa Calm   3.2 km/h 88% 0.0 mm 0 W/m2
01:58 -0.1 °C -1.7 °C 1042.3 hPa Calm     89% 0.0 mm 0 W/m2
02:03 -0.2 °C -1.8 °C 1042.3 hPa Calm   6.4 km/h 89% 0.0 mm 0 W/m2
02:08 -0.2 °C -1.8 °C 1042.3 hPa Calm     89% 0.0 mm 0 W/m2
02:13 -0.2 °C -1.8 °C 1042.3 hPa Calm   6.4 km/h 89% 0.0 mm 0 W/m2
02:18 -0.3 °C -1.9 °C 1042.3 hPa Calm   1.6 km/h 89% 0.0 mm 0 W/m2
02:23 -0.3 °C -1.9 °C 1042.3 hPa Calm     89% 0.0 mm 0 W/m2
02:29 -0.3 °C -1.7 °C 1042.3 hPa Calm   1.6 km/h 90% 0.0 mm 0 W/m2
02:34 -0.5 °C -2.1 °C 1042.3 hPa Calm     89% 0.0 mm 0 W/m2
02:39 -0.6 °C -2.2 °C 1042.3 hPa Calm     89% 0.0 mm 0 W/m2
02:44 -0.7 °C -2.1 °C 1042.3 hPa Calm     90% 0.0 mm 0 W/m2
02:49 -0.8 °C -2.2 °C 1042.3 hPa Calm     90% 0.0 mm 0 W/m2
02:54 -0.8 °C -2.1 °C 1042.3 hPa Calm     91% 0.0 mm 0 W/m2
02:59 -0.8 °C -2.1 °C 1042.0 hPa Calm     91% 0.0 mm 0 W/m2
03:04 -0.7 °C -2 °C 1042.0 hPa Calm     91% 0.0 mm 0 W/m2
03:09 -0.5 °C -1.8 °C 1042.0 hPa Calm     91% 0.0 mm 0 W/m2
03:14 -0.6 °C -1.9 °C 1042.0 hPa Calm     91% 0.0 mm 0 W/m2
03:19 -0.7 °C -2 °C 1041.7 hPa Calm     91% 0.0 mm 0 W/m2
03:24 -0.7 °C -2 °C 1041.7 hPa Calm     91% 0.0 mm 0 W/m2
03:29 -0.7 °C -2 °C 1041.7 hPa Calm   4.8 km/h 91% 0.0 mm 0 W/m2
03:34 -0.6 °C -1.9 °C 1041.7 hPa Calm     91% 0.0 mm 0 W/m2
03:39 -0.7 °C -2 °C 1041.7 hPa Calm   4.8 km/h 91% 0.0 mm 0 W/m2
03:44 -0.8 °C -2.1 °C 1041.7 hPa Calm     91% 0.0 mm 0 W/m2
03:49 -0.8 °C -2.1 °C 1041.7 hPa Calm     91% 0.0 mm 0 W/m2
03:55 -0.8 °C -2.1 °C 1041.7 hPa Calm     91% 0.0 mm 0 W/m2
04:00 -0.8 °C -1.9 °C 1041.7 hPa Calm     92% 0.0 mm 0 W/m2
04:05 -0.7 °C -1.8 °C 1041.3 hPa Calm     92% 0.0 mm 0 W/m2
04:10 -0.7 °C -1.8 °C 1041.3 hPa Calm     92% 0.0 mm 0 W/m2
04:15 -0.7 °C -2 °C 1041.3 hPa Calm     91% 0.0 mm 0 W/m2
04:20 -0.8 °C -2.1 °C 1041.3 hPa Calm     91% 0.0 mm 0 W/m2
04:25 -0.8 °C -2.1 °C 1041.3 hPa Calm     91% 0.0 mm 0 W/m2
04:30 -0.9 °C -2.2 °C 1041.3 hPa Calm     91% 0.0 mm 0 W/m2
04:35 -0.9 °C -2.2 °C 1041.3 hPa Calm     91% 0.0 mm 0 W/m2
04:40 -0.9 °C -2.2 °C 1041.3 hPa Calm     91% 0.0 mm 0 W/m2
04:45 -1.1 °C -2.4 °C 1041.3 hPa Calm     91% 0.0 mm 0 W/m2
04:50 -1.1 °C -2.4 °C 1041.3 hPa Calm     91% 0.0 mm 0 W/m2
04:55 -1.2 °C -2.3 °C 1041.0 hPa Calm     92% 0.0 mm 0 W/m2
05:00 -1.3 °C -2.4 °C 1041.0 hPa Calm     92% 0.0 mm 0 W/m2
05:05 -1.3 °C -2.4 °C 1041.0 hPa Calm     92% 0.0 mm 0 W/m2
05:10 -1.3 °C -2.4 °C 1041.0 hPa Calm     92% 0.0 mm 0 W/m2
05:15 -1.3 °C -2.4 °C 1041.0 hPa Calm     92% 0.0 mm 0 W/m2
05:20 -1.3 °C -2.3 °C 1041.0 hPa Calm     93% 0.0 mm 0 W/m2
05:25 -1.2 °C -2.2 °C 1041.0 hPa Calm     93% 0.0 mm 0 W/m2
05:30 -1.2 °C -2.3 °C 1041.0 hPa Calm     92% 0.0 mm 0 W/m2
05:35 -1.2 °C -2.3 °C 1041.0 hPa Calm     92% 0.0 mm 0 W/m2
05:40 -1.3 °C -2.4 °C 1041.0 hPa Calm     92% 0.0 mm 0 W/m2
05:45 -1.4 °C -2.5 °C 1041.0 hPa Calm     92% 0.0 mm 0 W/m2
05:50 -1.5 °C -2.6 °C 1041.0 hPa Calm     92% 0.0 mm 0 W/m2
05:55 -1.5 °C -2.5 °C 1041.0 hPa Calm     93% 0.0 mm 0 W/m2
06:00 -1.6 °C -2.7 °C 1041.3 hPa Calm     92% 0.0 mm 0 W/m2
06:05 -1.6 °C -2.6 °C 1041.3 hPa Calm     93% 0.0 mm 0 W/m2
06:10 -1.6 °C -2.6 °C 1041.0 hPa Calm     93% 0.0 mm 0 W/m2
06:15 -1.5 °C -2.5 °C 1041.3 hPa Calm     93% 0.0 mm 0 W/m2
06:20 -1.4 °C -2.4 °C 1041.3 hPa Calm     93% 0.0 mm 0 W/m2
06:25 -1.4 °C -2.4 °C 1041.3 hPa Calm     93% 0.0 mm 0 W/m2
06:30 -1.5 °C -2.5 °C 1041.3 hPa Calm     93% 0.0 mm 0 W/m2
06:35 -1.6 °C -2.6 °C 1041.3 hPa Calm     93% 0.0 mm 0 W/m2
06:40 -1.6 °C -2.6 °C 1041.3 hPa Calm     93% 0.0 mm 0 W/m2
06:45 -1.7 °C -2.7 °C 1041.3 hPa Calm     93% 0.0 mm 0 W/m2
06:51 -1.7 °C -2.7 °C 1041.3 hPa Calm     93% 0.0 mm 0 W/m2
06:56 -1.6 °C -2.6 °C 1041.3 hPa Calm     93% 0.0 mm 0 W/m2
07:01 -1.6 °C -2.6 °C 1041.3 hPa Calm     93% 0.0 mm 0 W/m2
07:06 -1.6 °C -2.6 °C 1041.3 hPa Calm     93% 0.0 mm 0 W/m2
07:11 -1.5 °C -2.5 °C 1041.7 hPa Calm     93% 0.0 mm 0 W/m2
07:16 -1.4 °C -2.4 °C 1041.7 hPa Calm     93% 0.0 mm 0 W/m2
07:21 -1.4 °C -2.4 °C 1041.7 hPa Calm     93% 0.0 mm 0 W/m2
07:26 -1.3 °C -2.3 °C 1041.7 hPa Calm     93% 0.0 mm 0 W/m2
07:31 -1.3 °C -2.3 °C 1041.7 hPa Calm     93% 0.0 mm 0 W/m2
07:36 -1.3 °C -2.3 °C 1041.7 hPa Calm     93% 0.0 mm 0 W/m2
07:41 -1.3 °C -2.3 °C 1041.7 hPa Calm     93% 0.0 mm 0 W/m2
07:46 -1.3 °C -2.3 °C 1041.7 hPa Calm     93% 0.0 mm 0 W/m2
07:51 -1.3 °C -2.3 °C 1041.7 hPa Calm     93% 0.0 mm 0 W/m2
07:56 -1.3 °C -2.3 °C 1041.7 hPa Calm     93% 0.0 mm 0 W/m2
08:01 -1.3 °C -2.3 °C 1041.7 hPa Calm     93% 0.0 mm 0 W/m2
08:06 -1.4 °C -2.4 °C 1041.7 hPa Calm     93% 0.0 mm 0 W/m2
08:11 -1.4 °C -2.4 °C 1041.7 hPa Calm     93% 0.0 mm 0 W/m2
08:16 -1.5 °C -2.5 °C 1041.7 hPa Calm     93% 0.0 mm 0 W/m2
08:21 -1.4 °C -2.4 °C 1041.7 hPa Calm     93% 0.0 mm 0 W/m2
08:26 -1.3 °C -2.3 °C 1041.7 hPa Calm     93% 0.0 mm 5 W/m2
08:31 -1.4 °C -2.4 °C 1041.7 hPa Calm     93% 0.0 mm 7 W/m2
08:36 -1.4 °C -2.4 °C 1041.7 hPa Calm     93% 0.0 mm 9 W/m2
08:41 -1.4 °C -2.4 °C 1041.7 hPa Calm     93% 0.0 mm 11 W/m2
08:46 -1.4 °C -2.4 °C 1041.7 hPa Calm     93% 0.0 mm 12 W/m2
08:51 -1.4 °C -2.4 °C 1041.7 hPa Calm     93% 0.0 mm 12 W/m2
08:56 -1.4 °C -2.4 °C 1041.7 hPa Calm     93% 0.0 mm 14 W/m2
09:01 -1.5 °C -2.5 °C 1041.7 hPa Calm     93% 0.0 mm 16 W/m2
09:06 -1.5 °C -2.5 °C 1041.7 hPa Calm     93% 0.0 mm 16 W/m2
09:11 -1.4 °C -2.4 °C 1041.7 hPa Calm     93% 0.0 mm 18 W/m2
09:16 -1.4 °C -2.4 °C 1041.7 hPa Calm     93% 0.0 mm 19 W/m2
09:21 -1.3 °C -2.3 °C 1041.7 hPa Calm     93% 0.0 mm 19 W/m2
09:26 -1.3 °C -2.3 °C 1041.7 hPa Calm     93% 0.0 mm 21 W/m2
09:31 -1.3 °C -2.3 °C 1041.7 hPa Calm     93% 0.0 mm 21 W/m2
09:36 -1.3 °C -2.3 °C 1041.7 hPa Calm     93% 0.0 mm 26 W/m2
09:41 -1.2 °C -2.2 °C 1041.7 hPa Calm     93% 0.0 mm 25 W/m2
09:46 -1.1 °C -2.1 °C 1042.0 hPa Calm     93% 0.0 mm 25 W/m2
09:51 -1.1 °C -2.1 °C 1042.0 hPa Calm     93% 0.0 mm 25 W/m2
09:57 -1 °C -2 °C 1042.0 hPa Calm     93% 0.0 mm 25 W/m2
10:02 -0.9 °C -1.9 °C 1042.0 hPa Calm     93% 0.0 mm 26 W/m2
10:07 -0.8 °C -1.8 °C 1042.0 hPa Calm     93% 0.0 mm 28 W/m2
10:12 -0.7 °C -1.7 °C 1041.7 hPa Calm     93% 0.0 mm 28 W/m2
10:17 -0.7 °C -1.7 °C 1041.7 hPa Calm     93% 0.0 mm 28 W/m2
10:22 -0.6 °C -1.6 °C 1041.7 hPa Calm     93% 0.0 mm 32 W/m2
10:27 -0.5 °C -1.5 °C 1041.7 hPa Calm     93% 0.0 mm 32 W/m2
10:32 -0.4 °C -1.5 °C 1041.7 hPa Calm     92% 0.0 mm 30 W/m2
10:37 -0.3 °C -1.3 °C 1041.7 hPa Calm     93% 0.0 mm 33 W/m2
10:42 -0.1 °C -1.1 °C 1041.7 hPa Calm     93% 0.0 mm 30 W/m2
10:47 0.3 °C -0.8 °C 1041.7 hPa Calm     92% 0.0 mm 35 W/m2
10:52 0.5 °C -0.8 °C 1041.7 hPa Calm     91% 0.0 mm 39 W/m2
10:57 0.7 °C -0.8 °C 1041.7 hPa Calm     90% 0.0 mm 33 W/m2
11:02 0.8 °C -0.8 °C 1041.7 hPa Calm     89% 0.0 mm 39 W/m2
11:07 0.9 °C -0.9 °C 1041.7 hPa Calm     88% 0.0 mm 32 W/m2
11:12 0.9 °C -0.9 °C 1041.7 hPa Calm     88% 0.0 mm 33 W/m2
11:17 1 °C -0.9 °C 1041.3 hPa Calm     87% 0.0 mm 49 W/m2
11:22 1.1 °C -0.8 °C 1041.3 hPa Calm     87% 0.0 mm 37 W/m2
11:27 1.1 °C -0.8 °C 1041.3 hPa Calm     87% 0.0 mm 40 W/m2
11:32 1.2 °C -0.7 °C 1041.3 hPa Calm   3.2 km/h 87% 0.0 mm 35 W/m2
11:37 1.3 °C -0.6 °C 1041.3 hPa Calm   1.6 km/h 87% 0.0 mm 35 W/m2
11:42 1.4 °C -0.7 °C 1041.3 hPa Calm   1.6 km/h 86% 0.0 mm 60 W/m2
11:47 1.5 °C -0.6 °C 1041.3 hPa Calm     86% 0.0 mm 46 W/m2
11:52 1.6 °C -0.5 °C 1041.3 hPa Calm     86% 0.0 mm 37 W/m2
11:57 1.7 °C -0.6 °C 1041.3 hPa Calm     85% 0.0 mm 53 W/m2
12:02 1.8 °C -0.5 °C 1041.3 hPa Calm     85% 0.0 mm 33 W/m2
12:07 1.8 °C -0.5 °C 1041.0 hPa Calm     85% 0.0 mm 39 W/m2
12:12 1.8 °C -0.5 °C 1041.0 hPa Calm     85% 0.0 mm 33 W/m2
12:17 1.9 °C -0.4 °C 1041.0 hPa Calm     85% 0.0 mm 37 W/m2
12:22 1.9 °C -0.5 °C 1041.0 hPa Calm   1.6 km/h 84% 0.0 mm 51 W/m2
12:27 2 °C -0.3 °C 1041.0 hPa Calm     85% 0.0 mm 46 W/m2
12:32 2.1 °C -0.3 °C 1041.0 hPa Calm     84% 0.0 mm 67 W/m2
12:37 2.2 °C -0.2 °C 1041.0 hPa Calm   3.2 km/h 84% 0.0 mm 44 W/m2
12:42 2.3 °C -0.3 °C 1040.6 hPa ENE 3.2 km/h 3.2 km/h 83% 0.0 mm 40 W/m2
12:47 2.4 °C -0.2 °C 1040.6 hPa NE 4.7 km/h 6.4 km/h 83% 0.0 mm 42 W/m2
12:52 2.5 °C -0.1 °C 1040.6 hPa Calm     83% 0.0 mm 40 W/m2
12:57 2.6 °C 0 °C 1040.6 hPa NE 3.2 km/h 6.4 km/h 83% 0.0 mm 39 W/m2
13:02 2.6 °C 0 °C 1040.6 hPa ESE 1.4 km/h 6.4 km/h 83% 0.0 mm 37 W/m2
13:07 2.7 °C 0.1 °C 1040.6 hPa NE 6.4 km/h 8 km/h 83% 0.0 mm 39 W/m2
13:12 2.8 °C 0 °C 1040.6 hPa Calm   1.6 km/h 82% 0.0 mm 40 W/m2
13:17 2.8 °C 0 °C 1040.3 hPa Calm     82% 0.0 mm 37 W/m2
13:22 2.9 °C 0.1 °C 1040.3 hPa Calm   1.6 km/h 82% 0.0 mm 35 W/m2
13:27 2.9 °C 0 °C 1040.3 hPa Calm     81% 0.0 mm 40 W/m2
13:32 3 °C 0.2 °C 1040.3 hPa ENE 4.7 km/h 6.4 km/h 82% 0.0 mm 39 W/m2
13:37 3.1 °C 0.2 °C 1040.3 hPa Calm   1.6 km/h 81% 0.0 mm 46 W/m2
13:42 3.2 °C 0.3 °C 1040.0 hPa Calm   6.4 km/h 81% 0.0 mm 35 W/m2
13:47 3.2 °C 0.3 °C 1040.0 hPa NE 1.4 km/h 1.6 km/h 81% 0.0 mm 33 W/m2
13:52 3.2 °C 0.3 °C 1040.0 hPa Calm   6.4 km/h 81% 0.0 mm 39 W/m2
13:57 3.2 °C 0.3 °C 1040.0 hPa ESE 1.4 km/h 1.6 km/h 81% 0.0 mm 37 W/m2
14:02 3.2 °C 0.3 °C 1040.0 hPa Calm   3.2 km/h 81% 0.0 mm 39 W/m2
14:07 3.2 °C 0.3 °C 1039.6 hPa East 3.2 km/h 3.2 km/h 81% 0.0 mm 33 W/m2
14:12 3.3 °C 0.4 °C 1039.6 hPa Calm     81% 0.0 mm 35 W/m2
14:17 3.3 °C 0.2 °C 1039.6 hPa NE 1.4 km/h 1.6 km/h 80% 0.0 mm 44 W/m2
14:22 3.4 °C 0.3 °C 1039.6 hPa ENE 3.2 km/h 4.8 km/h 80% 0.0 mm 33 W/m2
14:28 3.4 °C 0.3 °C 1039.6 hPa Calm     80% 0.0 mm 32 W/m2
14:33 3.4 °C 0.3 °C 1039.6 hPa Calm   3.2 km/h 80% 0.0 mm 32 W/m2
14:38 3.3 °C 0.4 °C 1039.6 hPa Calm     81% 0.0 mm 33 W/m2
14:43 3.2 °C 0.3 °C 1039.6 hPa Calm   1.6 km/h 81% 0.0 mm 30 W/m2
14:48 3.1 °C 0.3 °C 1039.6 hPa Calm     82% 0.0 mm 30 W/m2
14:53 3 °C 0.2 °C 1039.6 hPa Calm     82% 0.0 mm 30 W/m2
14:58 2.9 °C 0.1 °C 1039.3 hPa Calm     82% 0.0 mm 28 W/m2
15:03 2.7 °C 0.1 °C 1039.3 hPa Calm     83% 0.0 mm 28 W/m2
15:08 2.7 °C 0.1 °C 1039.3 hPa Calm     83% 0.0 mm 26 W/m2
15:13 2.5 °C 0.1 °C 1039.3 hPa Calm     84% 0.0 mm 26 W/m2
15:18 2.4 °C 0.1 °C 1039.3 hPa Calm     85% 0.0 mm 25 W/m2
15:23 2.3 °C 0 °C 1039.3 hPa Calm   3.2 km/h 85% 0.0 mm 26 W/m2
15:28 2.3 °C 0 °C 1039.3 hPa Calm     85% 0.0 mm 25 W/m2
15:33 2.3 °C 0 °C 1039.3 hPa Calm     85% 0.0 mm 25 W/m2
15:38 2.3 °C 0.2 °C 1038.9 hPa Calm     86% 0.0 mm 23 W/m2
15:43 2.3 °C 0.2 °C 1038.9 hPa Calm   1.6 km/h 86% 0.0 mm 23 W/m2
15:48 2.2 °C 0.1 °C 1038.9 hPa Calm     86% 0.0 mm 23 W/m2
15:53 2.3 °C 0.2 °C 1038.9 hPa Calm     86% 0.0 mm 21 W/m2
15:58 2.3 °C 0.2 °C 1038.9 hPa Calm     86% 0.0 mm 21 W/m2
16:03 2.2 °C -0.1 °C 1038.9 hPa Calm     85% 0.0 mm 21 W/m2
16:09 2.2 °C 0.1 °C 1038.9 hPa Calm     86% 0.0 mm 19 W/m2
16:14 2.1 °C 0 °C 1038.6 hPa Calm     86% 0.0 mm 18 W/m2
16:19 2.1 °C 0 °C 1038.6 hPa Calm     86% 0.0 mm 18 W/m2
16:24 2.1 °C 0 °C 1038.6 hPa Calm     86% 0.0 mm 18 W/m2
16:29 2 °C 0.1 °C 1038.6 hPa Calm     87% 0.0 mm 16 W/m2
16:34 2.1 °C 0.2 °C 1038.6 hPa Calm     87% 0.0 mm 16 W/m2
16:39 2.1 °C 0.2 °C 1038.6 hPa Calm     87% 0.0 mm 14 W/m2
16:44 2 °C 0.1 °C 1038.6 hPa Calm     87% 0.0 mm 12 W/m2
16:49 2 °C 0.1 °C 1038.6 hPa Calm   1.6 km/h 87% 0.0 mm 12 W/m2
16:54 2 °C 0.1 °C 1038.6 hPa NNE 4.7 km/h 4.8 km/h 87% 0.0 mm 11 W/m2
16:59 2.2 °C 0.3 °C 1038.6 hPa NE 3.2 km/h 3.2 km/h 87% 0.0 mm 9 W/m2
17:04 2.3 °C 0.4 °C 1038.6 hPa Calm   1.6 km/h 87% 0.0 mm 7 W/m2
17:09 2.6 °C 0.5 °C 1038.6 hPa Calm   1.6 km/h 86% 0.0 mm 5 W/m2
17:14 2.7 °C 0.4 °C 1038.6 hPa Calm     85% 0.0 mm 0 W/m2
17:19 2.7 °C 0.3 °C 1038.3 hPa Calm     84% 0.0 mm 0 W/m2
17:24 2.6 °C 0.2 °C 1038.6 hPa Calm     84% 0.0 mm 0 W/m2
17:29 2.5 °C 0.1 °C 1038.6 hPa Calm     84% 0.0 mm 0 W/m2
17:34 2.4 °C 0 °C 1038.6 hPa Calm   1.6 km/h 84% 0.0 mm 0 W/m2
17:39 2.3 °C -0.1 °C 1038.6 hPa Calm     84% 0.0 mm 0 W/m2
17:44 2.2 °C -0.2 °C 1038.6 hPa Calm   1.6 km/h 84% 0.0 mm 0 W/m2
17:49 2.1 °C -0.2 °C 1038.6 hPa Calm     85% 0.0 mm 0 W/m2
17:54 1.9 °C -0.4 °C 1038.3 hPa Calm     85% 0.0 mm 0 W/m2
17:59 1.8 °C -0.3 °C 1038.3 hPa Calm     86% 0.0 mm 0 W/m2
18:04 1.7 °C -0.4 °C 1038.3 hPa Calm     86% 0.0 mm 0 W/m2
18:09 1.7 °C -0.2 °C 1038.3 hPa Calm     87% 0.0 mm 0 W/m2
18:14 1.6 °C -0.3 °C 1038.3 hPa Calm     87% 0.0 mm 0 W/m2
18:19 1.5 °C -0.4 °C 1038.3 hPa Calm     87% 0.0 mm 0 W/m2
18:24 1.4 °C -0.4 °C 1038.3 hPa Calm     88% 0.0 mm 0 W/m2
18:29 1.4 °C -0.4 °C 1038.3 hPa Calm     88% 0.0 mm 0 W/m2
18:34 1.3 °C -0.5 °C 1038.3 hPa Calm     88% 0.0 mm 0 W/m2
18:39 1.2 °C -0.6 °C 1038.3 hPa Calm     88% 0.0 mm 0 W/m2
18:44 1.1 °C -0.7 °C 1038.3 hPa Calm     88% 0.0 mm 0 W/m2
18:49 1 °C -0.6 °C 1038.3 hPa Calm     89% 0.0 mm 0 W/m2
18:54 1 °C -0.6 °C 1038.3 hPa Calm     89% 0.0 mm 0 W/m2
18:59 0.9 °C -0.7 °C 1038.3 hPa Calm     89% 0.0 mm 0 W/m2
19:04 0.8 °C -0.8 °C 1038.3 hPa Calm     89% 0.0 mm 0 W/m2
19:09 0.8 °C -0.7 °C 1038.3 hPa Calm     90% 0.0 mm 0 W/m2
19:14 0.8 °C -0.7 °C 1038.3 hPa Calm     90% 0.0 mm 0 W/m2
19:19 0.8 °C -0.7 °C 1038.3 hPa Calm     90% 0.0 mm 0 W/m2
19:24 0.9 °C -0.6 °C 1037.9 hPa Calm     90% 0.0 mm 0 W/m2
19:29 1 °C -0.5 °C 1038.3 hPa Calm     90% 0.0 mm 0 W/m2
19:34 1 °C -0.5 °C 1038.3 hPa Calm     90% 0.0 mm 0 W/m2
19:39 0.9 °C -0.6 °C 1038.3 hPa Calm     90% 0.0 mm 0 W/m2
19:44 0.9 °C -0.6 °C 1038.3 hPa Calm     90% 0.0 mm 0 W/m2
19:49 0.9 °C -0.6 °C 1038.3 hPa Calm     90% 0.0 mm 0 W/m2
19:54 0.8 °C -0.7 °C 1038.3 hPa Calm     90% 0.0 mm 0 W/m2
19:59 0.7 °C -0.8 °C 1038.3 hPa Calm     90% 0.0 mm 0 W/m2
20:04 0.6 °C -0.9 °C 1038.3 hPa Calm     90% 0.0 mm 0 W/m2
20:09 0.6 °C -0.9 °C 1038.3 hPa Calm     90% 0.0 mm 0 W/m2
20:14 0.5 °C -0.9 °C 1038.3 hPa Calm     90% 0.0 mm 0 W/m2
20:19 0.4 °C -1 °C 1038.3 hPa Calm     90% 0.0 mm 0 W/m2
20:24 0.3 °C -1.1 °C 1038.3 hPa Calm     90% 0.0 mm 0 W/m2
20:29 0.3 °C -1 °C 1037.9 hPa Calm     91% 0.0 mm 0 W/m2
20:34 0.2 °C -1.1 °C 1037.9 hPa Calm     91% 0.0 mm 0 W/m2
20:39 0.2 °C -1.1 °C 1037.9 hPa Calm     91% 0.0 mm 0 W/m2
20:44 0.1 °C -1.2 °C 1037.9 hPa Calm     91% 0.0 mm 0 W/m2
20:49 -0.1 °C -1.4 °C 1037.9 hPa Calm     91% 0.0 mm 0 W/m2
20:54 -0.2 °C -1.5 °C 1037.9 hPa Calm     91% 0.0 mm 0 W/m2
20:59 -0.3 °C -1.6 °C 1037.9 hPa Calm     91% 0.0 mm 0 W/m2
21:04 -0.4 °C -1.7 °C 1037.9 hPa Calm     91% 0.0 mm 0 W/m2
21:09 -0.5 °C -1.8 °C 1037.9 hPa Calm     91% 0.0 mm 0 W/m2
21:14 -0.6 °C -1.7 °C 1037.9 hPa Calm     92% 0.0 mm 0 W/m2
21:19 -0.6 °C -1.7 °C 1037.9 hPa Calm     92% 0.0 mm 0 W/m2
21:24 -0.6 °C -1.7 °C 1037.9 hPa Calm     92% 0.0 mm 0 W/m2
21:29 -0.7 °C -1.8 °C 1037.9 hPa Calm     92% 0.0 mm 0 W/m2
21:34 -0.7 °C -1.8 °C 1037.9 hPa Calm     92% 0.0 mm 0 W/m2
21:39 -0.7 °C -1.7 °C 1037.9 hPa Calm     93% 0.0 mm 0 W/m2
21:44 -0.7 °C -1.7 °C 1037.9 hPa Calm     93% 0.0 mm 0 W/m2
21:49 -0.6 °C -1.6 °C 1037.6 hPa Calm     93% 0.0 mm 0 W/m2
21:54 -0.5 °C -1.5 °C 1037.6 hPa Calm     93% 0.0 mm 0 W/m2
21:59 -0.6 °C -1.6 °C 1037.6 hPa Calm     93% 0.0 mm 0 W/m2
22:04 -0.6 °C -1.6 °C 1037.6 hPa Calm     93% 0.0 mm 0 W/m2
22:09 -0.6 °C -1.6 °C 1037.6 hPa Calm     93% 0.0 mm 0 W/m2
22:14 -0.6 °C -1.6 °C 1037.6 hPa Calm     93% 0.0 mm 0 W/m2
22:19 -0.6 °C -1.6 °C 1037.6 hPa Calm     93% 0.0 mm 0 W/m2
22:24 -0.6 °C -1.6 °C 1037.6 hPa Calm     93% 0.0 mm 0 W/m2
22:29 -0.7 °C -1.7 °C 1037.6 hPa Calm     93% 0.0 mm 0 W/m2
22:34 -0.7 °C -1.7 °C 1037.6 hPa Calm     93% 0.0 mm 0 W/m2
22:39 -0.8 °C -1.8 °C 1037.6 hPa Calm     93% 0.0 mm 0 W/m2
22:44 -0.8 °C -1.8 °C 1037.6 hPa Calm     93% 0.0 mm 0 W/m2
22:49 -0.9 °C -1.9 °C 1037.6 hPa Calm     93% 0.0 mm 0 W/m2
22:54 -0.9 °C -1.9 °C 1037.6 hPa Calm     93% 0.0 mm 0 W/m2
22:59 -0.8 °C -1.6 °C 1037.2 hPa Calm     94% 0.0 mm 0 W/m2
23:04 -0.8 °C -1.6 °C 1037.6 hPa Calm     94% 0.0 mm 0 W/m2
23:10 -0.8 °C -1.8 °C 1037.6 hPa Calm     93% 0.0 mm 0 W/m2
23:15 -0.9 °C -1.7 °C 1037.6 hPa Calm     94% 0.0 mm 0 W/m2
23:20 -0.9 °C -1.7 °C 1037.6 hPa Calm     94% 0.0 mm 0 W/m2
23:25 -0.9 °C -1.7 °C 1037.6 hPa Calm     94% 0.0 mm 0 W/m2
23:30 -0.9 °C -1.7 °C 1037.6 hPa SE 1.4 km/h 3.2 km/h 94% 0.0 mm 0 W/m2
23:35 -0.8 °C -1.6 °C 1037.2 hPa Calm     94% 0.0 mm 0 W/m2
23:40 -0.7 °C -1.5 °C 1037.2 hPa Calm     94% 0.0 mm 0 W/m2
23:45 -0.7 °C -1.5 °C 1037.2 hPa Calm     94% 0.0 mm 0 W/m2
23:50 -0.7 °C -1.5 °C 1037.2 hPa Calm     94% 0.0 mm 0 W/m2
23:55 -0.8 °C -1.6 °C 1037.2 hPa Calm     94% 0.0 mm 0 W/m2
Juneau County Weather
Compliments of Weather Underground - 4 mb